Time;durP1;ratioP1;P1;durP2;ratioP2;P2;SDS_P1;SDS_P2;PMS_P1;PMS_P2;Temp;Humidity;BMP_temperature;BMP_pressure;BME280_temperature;BME280_humidity;BME280_pressure;Samples;Min_cycle;Max_cycle;Signal;HPM_P1;HPM_P2
2022/08/14 00:01:36;;;;;;;;;;;17.20;99.90;;;;;;5018358;28;19909;-72
2022/08/14 00:04:02;;;;;;;;;;;17.10;99.90;;;;;;5019842;28;19955;-73
2022/08/14 00:06:27;;;;;;;;;;;17.20;99.90;;;;;;5019481;28;19940;-72
2022/08/14 00:08:54;;;;;;;;;;;17.20;99.90;;;;;;5001252;28;19916;-73
2022/08/14 00:11:19;;;;;;;;;;;17.30;99.90;;;;;;4990460;28;19999;-73
2022/08/14 00:13:47;;;;;;;;;;;17.30;99.90;;;;;;5022202;28;20030;-72
2022/08/14 00:16:13;;;;;;;;;;;17.30;99.90;;;;;;5022327;28;19913;-72
2022/08/14 00:18:39;;;;;;;;;;;17.40;99.90;;;;;;5022857;28;19916;-73
2022/08/14 00:21:05;;;;;;;;;;;17.40;99.90;;;;;;5019647;28;19909;-73
2022/08/14 00:23:30;;;;;;;;;;;17.50;99.90;;;;;;5018046;28;19924;-72
2022/08/14 00:25:56;;;;;;;;;;;17.50;99.90;;;;;;5021154;28;19920;-72
2022/08/14 00:28:25;;;;;;;;;;;17.50;99.90;;;;;;5020504;28;19913;-72
2022/08/14 00:30:52;;;;;;;;;;;17.50;99.90;;;;;;5014869;28;19923;-73
2022/08/14 00:33:18;;;;;;;;;;;17.50;99.90;;;;;;5020000;28;20285;-72
2022/08/14 00:35:44;;;;;;;;;;;17.50;99.90;;;;;;5023736;28;19928;-72
2022/08/14 00:38:09;;;;;;;;;;;17.30;99.90;;;;;;5023508;28;20142;-72
2022/08/14 00:40:35;;;;;;;;;;;17.10;99.90;;;;;;5023069;28;19917;-72
2022/08/14 00:43:01;;;;;;;;;;;17.00;99.90;;;;;;5018213;28;19935;-72
2022/08/14 00:45:26;;;;;;;;;;;16.80;99.90;;;;;;5022173;28;19918;-73
2022/08/14 00:47:52;;;;;;;;;;;16.60;99.90;;;;;;5022801;28;20353;-73
2022/08/14 00:50:18;;;;;;;;;;;16.50;99.90;;;;;;5013416;28;19980;-72
2022/08/14 00:52:45;;;;;;;;;;;16.50;99.90;;;;;;5022843;28;19924;-72
2022/08/14 00:55:12;;;;;;;;;;;16.50;99.90;;;;;;5022099;28;19923;-72
2022/08/14 00:57:37;;;;;;;;;;;16.50;99.90;;;;;;5003361;28;20277;-72
2022/08/14 01:00:05;;;;;;;;;;;16.60;99.90;;;;;;5018051;28;19919;-72
2022/08/14 01:02:31;;;;;;;;;;;16.70;99.90;;;;;;5021321;28;19920;-72
2022/08/14 01:04:58;;;;;;;;;;;16.80;99.90;;;;;;5020932;28;19909;-72
2022/08/14 01:07:24;;;;;;;;;;;16.90;99.90;;;;;;5020541;28;20413;-72
2022/08/14 01:09:52;;;;;;;;;;;17.10;99.90;;;;;;5022783;28;20338;-73
2022/08/14 01:12:18;;;;;;;;;;;17.20;99.90;;;;;;5023995;28;20406;-72
2022/08/14 01:14:43;;;;;;;;;;;17.30;99.90;;;;;;5022499;28;19924;-72
2022/08/14 01:17:09;;;;;;;;;;;17.40;99.90;;;;;;5022416;28;19913;-72
2022/08/14 01:22:19;;;;;;;;;;;17.40;99.90;;;;;;5022664;28;20016;-73
2022/08/14 01:24:45;;;;;;;;;;;17.40;99.90;;;;;;5022651;28;20365;-72
2022/08/14 01:27:17;;;;;;;;;;;17.40;99.90;;;;;;5022949;28;19923;-72
2022/08/14 01:29:44;;;;;;;;;;;17.40;99.90;;;;;;5021136;28;20699;-73
2022/08/14 01:32:10;;;;;;;;;;;17.50;99.90;;;;;;5011855;28;19913;-72
2022/08/14 01:34:36;;;;;;;;;;;17.60;99.90;;;;;;5001639;28;19913;-72
2022/08/14 01:37:01;;;;;;;;;;;17.60;99.90;;;;;;5020305;28;20032;-72
2022/08/14 01:39:27;;;;;;;;;;;17.50;99.90;;;;;;5021475;28;19908;-72
2022/08/14 01:41:56;;;;;;;;;;;17.40;99.90;;;;;;5010483;28;20042;-72
2022/08/14 01:44:24;;;;;;;;;;;17.40;99.90;;;;;;5022721;28;20403;-73
2022/08/14 01:46:53;;;;;;;;;;;17.30;99.90;;;;;;5022628;28;19928;-72
2022/08/14 01:49:19;;;;;;;;;;;17.20;99.90;;;;;;5009302;28;19968;-72
2022/08/14 01:51:44;;;;;;;;;;;17.00;99.90;;;;;;5016825;28;20269;-72
2022/08/14 01:54:12;;;;;;;;;;;16.80;99.90;;;;;;5005682;28;20364;-73
2022/08/14 01:56:39;;;;;;;;;;;16.70;99.90;;;;;;5008070;28;19913;-72
2022/08/14 01:59:20;;;;;;;;;;;16.70;99.90;;;;;;4999310;28;19961;-72
2022/08/14 02:01:50;;;;;;;;;;;16.70;99.90;;;;;;5007335;28;19917;-72
2022/08/14 02:04:17;;;;;;;;;;;16.70;99.90;;;;;;5014710;28;20288;-72
2022/08/14 02:06:43;;;;;;;;;;;16.60;99.90;;;;;;5017926;28;19921;-72
2022/08/14 02:09:08;;;;;;;;;;;16.50;99.90;;;;;;5018905;28;19913;-72
2022/08/14 02:11:35;;;;;;;;;;;16.40;99.90;;;;;;5017431;28;19909;-72
2022/08/14 02:14:03;;;;;;;;;;;16.30;99.90;;;;;;5003680;28;20069;-73
2022/08/14 02:16:35;;;;;;;;;;;16.20;99.90;;;;;;4999019;28;20020;-71
2022/08/14 02:19:03;;;;;;;;;;;16.10;99.90;;;;;;5005636;28;20303;-71
2022/08/14 02:21:31;;;;;;;;;;;16.10;99.90;;;;;;5018370;28;19917;-72
2022/08/14 02:23:58;;;;;;;;;;;16.00;99.90;;;;;;5017251;28;19960;-72
2022/08/14 02:26:28;;;;;;;;;;;16.00;99.90;;;;;;5009160;28;19924;-73
2022/08/14 02:28:58;;;;;;;;;;;15.90;99.90;;;;;;5004238;28;19915;-72
2022/08/14 02:31:26;;;;;;;;;;;15.90;99.90;;;;;;5014043;28;20077;-72
2022/08/14 02:33:51;;;;;;;;;;;15.80;99.90;;;;;;5015894;28;19955;-72
2022/08/14 02:36:17;;;;;;;;;;;15.70;99.90;;;;;;5012395;28;19921;-72
2022/08/14 02:38:43;;;;;;;;;;;15.80;99.90;;;;;;5013852;28;19919;-72
2022/08/14 02:41:09;;;;;;;;;;;15.80;99.90;;;;;;5018425;28;20203;-72
2022/08/14 02:43:37;;;;;;;;;;;15.80;99.90;;;;;;5016836;28;20405;-72
2022/08/14 02:46:04;;;;;;;;;;;15.80;99.90;;;;;;5017743;28;19959;-71
2022/08/14 02:48:32;;;;;;;;;;;15.70;99.90;;;;;;5015601;28;19909;-72
2022/08/14 02:50:58;;;;;;;;;;;15.60;99.90;;;;;;5007903;28;19924;-72
2022/08/14 02:53:24;;;;;;;;;;;15.40;99.90;;;;;;5017550;28;19913;-72
2022/08/14 02:55:49;;;;;;;;;;;15.40;99.90;;;;;;5017990;28;20227;-72
2022/08/14 02:58:16;;;;;;;;;;;15.30;99.90;;;;;;5016339;28;20332;-72
2022/08/14 03:00:42;;;;;;;;;;;15.20;99.90;;;;;;5016967;28;19923;-72
2022/08/14 03:03:07;;;;;;;;;;;15.10;99.90;;;;;;5001347;28;19913;-72
2022/08/14 03:05:33;;;;;;;;;;;15.10;99.90;;;;;;5000140;28;19949;-72
2022/08/14 03:08:09;;;;;;;;;;;15.10;99.90;;;;;;5014213;28;19921;-72
2022/08/14 03:10:36;;;;;;;;;;;15.10;99.90;;;;;;5017102;28;20406;-72
2022/08/14 03:13:05;;;;;;;;;;;15.10;99.90;;;;;;4997554;28;19974;-72
2022/08/14 03:15:32;;;;;;;;;;;15.10;99.90;;;;;;4999213;28;20101;-72
2022/08/14 03:17:57;;;;;;;;;;;15.10;99.90;;;;;;5019082;28;19938;-72
2022/08/14 03:20:23;;;;;;;;;;;15.10;99.90;;;;;;4999094;28;20376;-72
2022/08/14 03:22:50;;;;;;;;;;;15.10;99.90;;;;;;5015666;28;19920;-72
2022/08/14 03:25:15;;;;;;;;;;;15.10;99.90;;;;;;4999499;28;19921;-72
2022/08/14 03:27:41;;;;;;;;;;;15.10;99.90;;;;;;4998640;28;19924;-73
2022/08/14 03:30:07;;;;;;;;;;;15.00;99.90;;;;;;5019113;28;19909;-72
2022/08/14 03:32:33;;;;;;;;;;;14.90;99.90;;;;;;5019157;28;20055;-72
2022/08/14 03:34:58;;;;;;;;;;;14.90;99.90;;;;;;5018481;28;20023;-72
2022/08/14 03:37:25;;;;;;;;;;;14.90;99.90;;;;;;5016223;28;19925;-73
2022/08/14 03:39:54;;;;;;;;;;;14.90;99.90;;;;;;5017124;28;19913;-72
2022/08/14 03:42:21;;;;;;;;;;;14.90;99.90;;;;;;5017311;28;20092;-72
2022/08/14 03:44:48;;;;;;;;;;;15.00;99.90;;;;;;5018369;28;19913;-72
2022/08/14 03:47:13;;;;;;;;;;;15.00;99.90;;;;;;5016836;28;20388;-72
2022/08/14 03:49:39;;;;;;;;;;;15.00;99.90;;;;;;5019061;28;19913;-72
2022/08/14 03:52:05;;;;;;;;;;;15.00;99.90;;;;;;5007176;28;19913;-72
2022/08/14 03:54:34;;;;;;;;;;;15.00;99.90;;;;;;5003491;28;19913;-72
2022/08/14 03:57:00;;;;;;;;;;;15.00;99.90;;;;;;5015902;28;19916;-72
2022/08/14 03:59:26;;;;;;;;;;;14.90;99.90;;;;;;5018115;28;19963;-72
2022/08/14 04:01:51;;;;;;;;;;;14.80;99.90;;;;;;5017079;28;20430;-72
2022/08/14 04:04:17;;;;;;;;;;;14.80;99.90;;;;;;5003823;28;19917;-72
2022/08/14 04:06:43;;;;;;;;;;;14.80;99.90;;;;;;5020716;28;19996;-72
2022/08/14 04:09:08;;;;;;;;;;;14.80;99.90;;;;;;5020836;28;20307;-72
2022/08/14 04:11:35;;;;;;;;;;;14.70;99.90;;;;;;5021500;28;19920;-72
2022/08/14 04:14:00;;;;;;;;;;;14.60;99.90;;;;;;5019427;28;20364;-72
2022/08/14 04:16:26;;;;;;;;;;;14.60;99.90;;;;;;5019006;28;20269;-72
2022/08/14 04:18:54;;;;;;;;;;;14.60;99.90;;;;;;5018212;28;20356;-72
2022/08/14 04:21:23;;;;;;;;;;;14.60;99.90;;;;;;5020797;28;19933;-72
2022/08/14 04:23:49;;;;;;;;;;;14.50;99.90;;;;;;5020064;28;19931;-72
2022/08/14 04:26:17;;;;;;;;;;;14.50;99.90;;;;;;5017260;28;19917;-72
2022/08/14 04:28:43;;;;;;;;;;;14.40;99.90;;;;;;5014380;28;20275;-72
2022/08/14 04:31:09;;;;;;;;;;;14.30;99.90;;;;;;5017035;28;19917;-72
2022/08/14 04:33:35;;;;;;;;;;;14.30;99.90;;;;;;5019821;28;19909;-72
2022/08/14 04:36:01;;;;;;;;;;;14.20;99.90;;;;;;5013970;28;19921;-71
2022/08/14 04:43:54;;;;;;;;;;;14.20;99.90;;;;;;5014495;28;19936;-73
2022/08/14 04:46:21;;;;;;;;;;;14.20;99.90;;;;;;5019637;28;19921;-72
2022/08/14 04:48:47;;;;;;;;;;;14.30;99.90;;;;;;5018858;28;20124;-72
2022/08/14 04:51:14;;;;;;;;;;;14.40;99.90;;;;;;5011813;28;20312;-72
2022/08/14 04:53:42;;;;;;;;;;;14.40;99.90;;;;;;5008267;28;20399;-72
2022/08/14 04:56:08;;;;;;;;;;;14.50;99.90;;;;;;5012406;28;20683;-72
2022/08/14 04:58:34;;;;;;;;;;;14.50;99.90;;;;;;5018345;28;19958;-73
2022/08/14 05:01:02;;;;;;;;;;;14.50;99.90;;;;;;5017346;28;19917;-72
2022/08/14 05:03:30;;;;;;;;;;;14.50;99.90;;;;;;5008229;28;19913;-72
2022/08/14 05:05:56;;;;;;;;;;;14.50;99.90;;;;;;5009685;28;19921;-72
2022/08/14 05:08:22;;;;;;;;;;;14.40;99.90;;;;;;5019269;28;20012;-72
2022/08/14 05:10:52;;;;;;;;;;;14.40;99.90;;;;;;5019992;28;20328;-72
2022/08/14 05:13:22;;;;;;;;;;;14.30;99.90;;;;;;5016178;28;19913;-72
2022/08/14 05:15:48;;;;;;;;;;;14.30;99.90;;;;;;5004734;28;19913;-72
2022/08/14 05:18:18;;;;;;;;;;;14.30;99.90;;;;;;5003832;28;19925;-71
2022/08/14 05:20:48;;;;;;;;;;;14.30;99.90;;;;;;5010617;28;19952;-72
2022/08/14 05:23:16;;;;;;;;;;;14.50;99.90;;;;;;5002531;28;19909;-71
2022/08/14 05:25:42;;;;;;;;;;;14.60;99.90;;;;;;5004077;28;20374;-72
2022/08/14 05:28:08;;;;;;;;;;;14.70;99.90;;;;;;4997476;28;19963;-72
2022/08/14 05:30:34;;;;;;;;;;;14.80;99.90;;;;;;5018565;28;19917;-72
2022/08/14 05:33:00;;;;;;;;;;;14.90;99.90;;;;;;5013431;28;20443;-72
2022/08/14 05:35:26;;;;;;;;;;;15.00;99.90;;;;;;5022553;28;19913;-72
2022/08/14 05:37:52;;;;;;;;;;;15.10;99.90;;;;;;5023282;28;20478;-72
2022/08/14 05:40:17;;;;;;;;;;;15.20;99.90;;;;;;5019146;28;19920;-72
2022/08/14 05:42:43;;;;;;;;;;;15.30;99.90;;;;;;5022504;28;19913;-72
2022/08/14 05:45:09;;;;;;;;;;;15.50;99.90;;;;;;5022735;28;20273;-71
2022/08/14 05:47:37;;;;;;;;;;;15.50;99.90;;;;;;5023608;28;19913;-72
2022/08/14 05:50:03;;;;;;;;;;;15.60;99.90;;;;;;5020422;28;19935;-72
2022/08/14 05:52:29;;;;;;;;;;;15.70;99.90;;;;;;5007936;28;20448;-72
2022/08/14 05:54:56;;;;;;;;;;;15.80;99.90;;;;;;5003892;28;19939;-72
2022/08/14 05:57:22;;;;;;;;;;;15.80;99.90;;;;;;5006356;28;19947;-72
2022/08/14 05:59:48;;;;;;;;;;;15.90;99.90;;;;;;5001775;28;20300;-72
2022/08/14 06:02:13;;;;;;;;;;;16.00;99.90;;;;;;5014474;28;19923;-72
2022/08/14 06:04:39;;;;;;;;;;;16.00;99.90;;;;;;5002586;28;19927;-72
2022/08/14 06:07:05;;;;;;;;;;;16.10;99.90;;;;;;5020899;28;19928;-72
2022/08/14 06:09:30;;;;;;;;;;;16.20;99.90;;;;;;5021735;28;19920;-72
2022/08/14 06:11:56;;;;;;;;;;;16.20;99.90;;;;;;5020483;28;20268;-72
2022/08/14 06:14:22;;;;;;;;;;;16.30;99.90;;;;;;5001827;28;20458;-72
2022/08/14 06:16:47;;;;;;;;;;;16.50;99.90;;;;;;5002614;28;19917;-72
2022/08/14 06:19:13;;;;;;;;;;;16.60;99.90;;;;;;5012844;28;19971;-72
2022/08/14 06:21:39;;;;;;;;;;;16.70;99.90;;;;;;5025160;28;19944;-73
2022/08/14 06:24:04;;;;;;;;;;;16.90;99.90;;;;;;5029406;28;19913;-72
2022/08/14 06:26:30;;;;;;;;;;;17.10;99.90;;;;;;5027194;28;19956;-72
2022/08/14 06:28:55;;;;;;;;;;;17.20;99.90;;;;;;5033780;28;19908;-72
2022/08/14 06:31:21;;;;;;;;;;;17.50;99.90;;;;;;5010296;28;20672;-72
2022/08/14 06:33:47;;;;;;;;;;;17.70;99.90;;;;;;5020263;28;19913;-71
2022/08/14 06:36:16;;;;;;;;;;;17.90;99.90;;;;;;5001936;28;19947;-72
2022/08/14 06:38:41;;;;;;;;;;;18.10;99.90;;;;;;5022725;28;19956;-72
2022/08/14 06:41:07;;;;;;;;;;;18.30;99.90;;;;;;5021574;28;19951;-72
2022/08/14 06:43:32;;;;;;;;;;;18.50;99.90;;;;;;5021408;28;20016;-72
2022/08/14 06:45:59;;;;;;;;;;;18.70;99.90;;;;;;5016806;28;19925;-72
2022/08/14 06:48:26;;;;;;;;;;;18.80;99.90;;;;;;5018481;28;20022;-72
2022/08/14 06:50:52;;;;;;;;;;;19.00;99.90;;;;;;5013370;28;19913;-72
2022/08/14 06:53:19;;;;;;;;;;;19.30;99.90;;;;;;5014710;28;19913;-71
2022/08/14 06:55:45;;;;;;;;;;;19.50;99.90;;;;;;5010968;28;20388;-71
2022/08/14 06:58:11;;;;;;;;;;;19.60;99.90;;;;;;5009567;28;20011;-71
2022/08/14 07:00:37;;;;;;;;;;;19.80;99.90;;;;;;5016821;28;20094;-71
2022/08/14 07:05:47;;;;;;;;;;;20.10;99.90;;;;;;5015409;28;19980;-71
2022/08/14 07:08:17;;;;;;;;;;;20.30;99.90;;;;;;5012910;28;19913;-71
2022/08/14 07:10:50;;;;;;;;;;;20.50;99.90;;;;;;4997940;28;20480;-71
2022/08/14 07:13:19;;;;;;;;;;;20.60;99.90;;;;;;5010012;28;19909;-71
2022/08/14 07:15:47;;;;;;;;;;;20.80;99.90;;;;;;5010501;28;19967;-71
2022/08/14 07:18:13;;;;;;;;;;;20.90;99.90;;;;;;4993744;28;19967;-71
2022/08/14 07:20:39;;;;;;;;;;;21.00;99.90;;;;;;5008156;28;19913;-71
2022/08/14 07:23:07;;;;;;;;;;;21.00;99.90;;;;;;5007933;28;19924;-71
2022/08/14 07:25:33;;;;;;;;;;;21.10;99.90;;;;;;5001524;28;20019;-71
2022/08/14 07:27:59;;;;;;;;;;;21.30;99.90;;;;;;5021605;28;20296;-71
2022/08/14 07:30:25;;;;;;;;;;;21.40;99.90;;;;;;5014594;28;19913;-72
2022/08/14 07:32:50;;;;;;;;;;;21.60;99.90;;;;;;5022679;28;19931;-72
2022/08/14 07:35:16;;;;;;;;;;;21.80;99.90;;;;;;5014219;28;20036;-72
2022/08/14 07:37:41;;;;;;;;;;;22.10;99.90;;;;;;5012857;28;19917;-71
2022/08/14 07:40:07;;;;;;;;;;;22.40;99.90;;;;;;5016659;28;19913;-72
2022/08/14 07:42:33;;;;;;;;;;;22.70;99.90;;;;;;5014227;28;19918;-71
2022/08/14 07:44:59;;;;;;;;;;;23.00;99.90;;;;;;5015042;28;19917;-72
2022/08/14 07:47:25;;;;;;;;;;;23.40;99.90;;;;;;5013227;28;20027;-72
2022/08/14 07:49:55;;;;;;;;;;;23.80;99.90;;;;;;5009159;28;19912;-71
2022/08/14 07:52:21;;;;;;;;;;;24.40;99.90;;;;;;5009293;28;20019;-72
2022/08/14 07:54:46;;;;;;;;;;;26.50;96.80;;;;;;5006285;28;19913;-72
2022/08/14 07:57:12;;;;;;;;;;;29.40;90.20;;;;;;5007798;28;19963;-72
2022/08/14 07:59:38;;;;;;;;;;;30.90;82.00;;;;;;4990628;28;19986;-73
2022/08/14 08:02:03;;;;;;;;;;;32.40;71.30;;;;;;5012218;28;19913;-72
2022/08/14 08:04:30;;;;;;;;;;;33.50;64.30;;;;;;5020186;28;19973;-72
2022/08/14 08:06:55;;;;;;;;;;;35.20;58.80;;;;;;5004829;28;19924;-72
2022/08/14 08:09:25;;;;;;;;;;;36.00;51.70;;;;;;5015078;28;19913;-69
2022/08/14 08:11:51;;;;;;;;;;;37.70;46.50;;;;;;5018114;28;20326;-70
2022/08/14 08:14:17;;;;;;;;;;;38.80;44.10;;;;;;5014269;28;19912;-72
2022/08/14 08:16:44;;;;;;;;;;;39.40;39.70;;;;;;5009610;28;19924;-70
2022/08/14 08:19:10;;;;;;;;;;;40.30;39.00;;;;;;5004180;28;19922;-70
2022/08/14 08:21:38;;;;;;;;;;;41.50;37.40;;;;;;5005935;28;20276;-70
2022/08/14 08:24:03;;;;;;;;;;;41.50;36.60;;;;;;5001486;28;20031;-70
2022/08/14 08:26:29;;;;;;;;;;;42.60;34.10;;;;;;5011205;28;20154;-70
2022/08/14 08:28:56;;;;;;;;;;;43.10;31.90;;;;;;5010155;28;19918;-73
2022/08/14 08:31:22;;;;;;;;;;;43.90;31.00;;;;;;5020321;28;19913;-73
2022/08/14 08:33:50;;;;;;;;;;;44.30;29.90;;;;;;5014980;28;20403;-72
2022/08/14 08:36:16;;;;;;;;;;;43.90;30.70;;;;;;5011664;28;20621;-72
2022/08/14 08:38:41;;;;;;;;;;;43.90;30.50;;;;;;5008916;28;19946;-71
2022/08/14 08:41:09;;;;;;;;;;;44.40;30.00;;;;;;5008502;28;19944;-71
2022/08/14 08:43:35;;;;;;;;;;;44.80;30.00;;;;;;5009101;28;19957;-70
2022/08/14 08:46:10;;;;;;;;;;;44.60;28.30;;;;;;5009087;28;19921;-71
2022/08/14 08:48:46;;;;;;;;;;;44.20;28.30;;;;;;5016916;28;19967;-71
2022/08/14 08:51:29;;;;;;;;;;;44.10;29.20;;;;;;5022582;28;20368;-70
2022/08/14 08:53:58;;;;;;;;;;;44.50;29.70;;;;;;5009514;28;19927;-70
2022/08/14 08:56:33;;;;;;;;;;;43.50;28.80;;;;;;5014683;28;19921;-71
2022/08/14 08:58:59;;;;;;;;;;;42.80;28.40;;;;;;5011954;28;20178;-71
2022/08/14 09:01:29;;;;;;;;;;;42.80;29.50;;;;;;5014255;28;19928;-70
2022/08/14 09:04:04;;;;;;;;;;;43.40;28.60;;;;;;5012024;28;19982;-70
2022/08/14 09:06:30;;;;;;;;;;;43.80;28.50;;;;;;5011663;28;19936;-70
2022/08/14 09:08:55;;;;;;;;;;;43.20;27.30;;;;;;5010190;28;19921;-72
2022/08/14 09:11:23;;;;;;;;;;;43.20;27.80;;;;;;5012313;28;19928;-70
2022/08/14 09:13:50;;;;;;;;;;;43.80;27.40;;;;;;5013666;28;20413;-72
2022/08/14 09:16:18;;;;;;;;;;;43.80;26.90;;;;;;5011227;28;19952;-71
2022/08/14 09:18:44;;;;;;;;;;;43.10;27.60;;;;;;5011018;28;19917;-71
2022/08/14 09:21:09;;;;;;;;;;;42.50;28.00;;;;;;5008180;28;19924;-72
2022/08/14 09:23:36;;;;;;;;;;;42.40;28.90;;;;;;5012743;28;20721;-71
2022/08/14 09:26:01;;;;;;;;;;;41.40;28.00;;;;;;4998531;28;20399;-71
2022/08/14 09:28:27;;;;;;;;;;;41.10;30.00;;;;;;5014579;28;19921;-71
2022/08/14 09:30:54;;;;;;;;;;;40.60;28.90;;;;;;5010889;28;20012;-72
2022/08/14 09:33:23;;;;;;;;;;;41.70;28.00;;;;;;4997117;28;19921;-72
2022/08/14 09:35:55;;;;;;;;;;;41.40;27.60;;;;;;5014822;28;19932;-72
2022/08/14 09:38:27;;;;;;;;;;;41.10;27.30;;;;;;5000536;28;20344;-71
2022/08/14 09:41:07;;;;;;;;;;;41.30;26.80;;;;;;5019005;28;20428;-71
2022/08/14 09:43:42;;;;;;;;;;;41.20;28.00;;;;;;5015171;28;20003;-71
2022/08/14 09:46:07;;;;;;;;;;;41.70;29.50;;;;;;5015267;28;19932;-71
2022/08/14 09:48:33;;;;;;;;;;;42.10;28.00;;;;;;4669015;28;9999925;-70
2022/08/14 09:51:00;;;;;;;;;;;42.40;29.40;;;;;;5016493;28;19928;-72
2022/08/14 09:53:34;;;;;;;;;;;43.00;26.10;;;;;;5012670;28;20007;-72
2022/08/14 09:56:00;;;;;;;;;;;42.90;25.70;;;;;;5014688;28;19921;-72
2022/08/14 09:58:45;;;;;;;;;;;42.50;28.50;;;;;;5014277;28;20376;-70
2022/08/14 10:01:12;;;;;;;;;;;42.70;26.40;;;;;;5015568;28;20722;-71
2022/08/14 10:03:45;;;;;;;;;;;42.40;25.80;;;;;;5015500;28;19917;-71
2022/08/14 10:06:12;;;;;;;;;;;42.40;26.10;;;;;;5019265;28;19924;-71
2022/08/14 10:08:42;;;;;;;;;;;41.40;26.40;;;;;;5015771;28;19924;-71
2022/08/14 10:11:16;;;;;;;;;;;40.60;29.50;;;;;;5020150;28;20012;-71
2022/08/14 10:13:42;;;;;;;;;;;38.60;31.30;;;;;;5022066;28;20405;-71
2022/08/14 10:16:08;;;;;;;;;;;37.50;30.10;;;;;;5021049;28;19943;-71
2022/08/14 10:18:33;;;;;;;;;;;37.00;31.10;;;;;;5016016;28;20357;-71
2022/08/14 10:21:00;;;;;;;;;;;37.10;32.60;;;;;;5016712;28;19936;-70
2022/08/14 10:23:27;;;;;;;;;;;37.30;31.80;;;;;;5004834;28;19948;-71
2022/08/14 10:25:56;;;;;;;;;;;37.80;32.30;;;;;;5022106;28;20656;-71
2022/08/14 10:28:22;;;;;;;;;;;38.50;30.60;;;;;;5012997;28;19913;-71
2022/08/14 10:30:52;;;;;;;;;;;39.80;28.60;;;;;;5008279;28;19963;-71
2022/08/14 10:33:25;;;;;;;;;;;40.20;27.80;;;;;;5037915;28;20007;-71
2022/08/14 10:35:50;;;;;;;;;;;41.00;27.80;;;;;;5021634;28;19964;-71
2022/08/14 10:38:26;;;;;;;;;;;41.00;28.80;;;;;;5021684;28;19975;-70
2022/08/14 10:40:52;;;;;;;;;;;41.90;26.60;;;;;;5011826;28;20373;-71
2022/08/14 10:43:19;;;;;;;;;;;42.40;25.00;;;;;;5008896;28;19932;-71
2022/08/14 10:45:52;;;;;;;;;;;43.00;25.00;;;;;;5015029;28;20606;-71
2022/08/14 10:48:18;;;;;;;;;;;43.10;25.00;;;;;;4989959;28;20013;-71
2022/08/14 10:50:48;;;;;;;;;;;43.00;25.30;;;;;;5014755;28;20374;-71
2022/08/14 10:53:13;;;;;;;;;;;43.00;23.70;;;;;;5013603;28;19917;-71
2022/08/14 10:55:39;;;;;;;;;;;43.00;26.40;;;;;;5013701;28;20046;-71
2022/08/14 10:58:09;;;;;;;;;;;43.30;25.40;;;;;;5016895;28;19917;-70
2022/08/14 11:00:35;;;;;;;;;;;43.20;24.40;;;;;;5011724;28;19917;-70
2022/08/14 11:03:08;;;;;;;;;;;43.30;24.60;;;;;;5010150;28;19929;-71
2022/08/14 11:05:41;;;;;;;;;;;42.90;24.70;;;;;;5015095;28;19921;-71
2022/08/14 11:08:07;;;;;;;;;;;42.50;25.10;;;;;;5013445;28;19921;-71
2022/08/14 11:10:39;;;;;;;;;;;42.40;26.30;;;;;;5012442;28;19928;-71
2022/08/14 11:13:05;;;;;;;;;;;42.80;24.10;;;;;;5017160;28;20439;-71
2022/08/14 11:15:31;;;;;;;;;;;42.70;24.20;;;;;;5017614;28;19968;-71
2022/08/14 11:17:57;;;;;;;;;;;42.20;23.70;;;;;;5012045;28;20011;-70
2022/08/14 11:20:24;;;;;;;;;;;41.90;24.60;;;;;;5010425;28;20035;-71
2022/08/14 11:22:51;;;;;;;;;;;42.10;25.90;;;;;;5016713;28;19917;-71
2022/08/14 11:25:17;;;;;;;;;;;41.90;25.00;;;;;;5015435;28;19923;-71
2022/08/14 11:27:44;;;;;;;;;;;41.20;26.50;;;;;;5015928;28;19925;-70
2022/08/14 11:30:13;;;;;;;;;;;41.20;25.50;;;;;;5014479;28;19917;-70
2022/08/14 11:32:41;;;;;;;;;;;41.00;25.40;;;;;;5009996;28;19951;-69
2022/08/14 11:35:10;;;;;;;;;;;40.70;26.60;;;;;;5012783;28;19917;-70
2022/08/14 11:37:36;;;;;;;;;;;39.70;26.40;;;;;;5012843;28;19932;-71
2022/08/14 11:40:02;;;;;;;;;;;39.40;26.50;;;;;;5011613;28;19917;-70
2022/08/14 11:42:29;;;;;;;;;;;39.20;27.40;;;;;;5020207;28;19913;-71
2022/08/14 11:44:58;;;;;;;;;;;39.10;26.60;;;;;;5013889;28;19944;-70
2022/08/14 11:47:24;;;;;;;;;;;38.70;27.00;;;;;;5003302;28;19930;-70
2022/08/14 11:49:49;;;;;;;;;;;38.20;26.90;;;;;;5017915;28;20335;-70
2022/08/14 11:52:16;;;;;;;;;;;38.00;27.10;;;;;;5008598;28;19955;-70
2022/08/14 11:54:43;;;;;;;;;;;38.00;25.90;;;;;;5020347;28;20004;-70
2022/08/14 11:57:15;;;;;;;;;;;38.20;26.80;;;;;;5009675;28;19917;-70
2022/08/14 11:59:41;;;;;;;;;;;38.60;26.50;;;;;;5018726;28;19936;-70
2022/08/14 12:02:10;;;;;;;;;;;38.30;30.20;;;;;;5017311;28;20016;-70
2022/08/14 12:04:46;;;;;;;;;;;38.00;29.90;;;;;;5016186;28;19937;-70
2022/08/14 12:07:12;;;;;;;;;;;37.60;30.00;;;;;;5019509;28;20038;-70
2022/08/14 12:09:37;;;;;;;;;;;36.70;30.70;;;;;;4998755;28;20721;-70
2022/08/14 12:12:20;;;;;;;;;;;36.30;30.90;;;;;;5019308;28;20392;-69
2022/08/14 12:14:55;;;;;;;;;;;36.30;31.60;;;;;;5022100;28;20327;-70
2022/08/14 12:17:21;;;;;;;;;;;36.10;30.60;;;;;;4998340;28;20008;-70
2022/08/14 12:19:48;;;;;;;;;;;35.50;30.00;;;;;;5014510;28;19924;-71
2022/08/14 12:22:13;;;;;;;;;;;35.10;31.70;;;;;;5009596;28;20339;-70
2022/08/14 12:24:42;;;;;;;;;;;34.90;31.00;;;;;;5022622;28;19917;-70
2022/08/14 12:27:07;;;;;;;;;;;34.60;30.70;;;;;;5002728;28;19921;-70
2022/08/14 12:29:33;;;;;;;;;;;34.50;32.10;;;;;;5004038;28;19944;-70
2022/08/14 12:32:00;;;;;;;;;;;34.30;32.90;;;;;;5001002;28;19917;-70
2022/08/14 12:34:30;;;;;;;;;;;34.20;30.90;;;;;;5021201;28;19960;-69
2022/08/14 12:37:06;;;;;;;;;;;33.90;32.30;;;;;;4673891;28;9999923;-69
2022/08/14 12:39:32;;;;;;;;;;;33.60;31.80;;;;;;5018463;28;19947;-70
2022/08/14 12:42:05;;;;;;;;;;;33.70;32.50;;;;;;5020446;28;19914;-69
2022/08/14 12:44:32;;;;;;;;;;;34.00;33.50;;;;;;5010234;28;19991;-70
2022/08/14 12:47:02;;;;;;;;;;;34.30;30.60;;;;;;5012913;28;20033;-70
2022/08/14 12:49:27;;;;;;;;;;;34.40;32.30;;;;;;5021263;28;20412;-70
2022/08/14 12:51:59;;;;;;;;;;;34.60;31.80;;;;;;5020546;28;19917;-70
2022/08/14 12:54:25;;;;;;;;;;;34.50;30.50;;;;;;5011250;28;19979;-70
2022/08/14 12:57:01;;;;;;;;;;;34.70;31.10;;;;;;5012318;28;20284;-70
2022/08/14 12:59:32;;;;;;;;;;;34.90;33.20;;;;;;5019885;28;19917;-69
2022/08/14 13:01:57;;;;;;;;;;;35.20;29.80;;;;;;5013883;28;19979;-69
2022/08/14 13:04:23;;;;;;;;;;;35.50;31.30;;;;;;5013133;28;19953;-70
2022/08/14 13:06:49;;;;;;;;;;;35.90;31.10;;;;;;5013598;28;20277;-70
2022/08/14 13:09:15;;;;;;;;;;;36.40;30.90;;;;;;5019200;28;19971;-70
2022/08/14 13:11:51;;;;;;;;;;;36.50;29.50;;;;;;5018636;28;19917;-70
2022/08/14 13:14:23;;;;;;;;;;;36.40;30.00;;;;;;5020230;28;19913;-70
2022/08/14 13:16:51;;;;;;;;;;;36.70;29.10;;;;;;5019256;28;19917;-70
2022/08/14 13:19:18;;;;;;;;;;;36.70;30.00;;;;;;5013765;28;19985;-69
2022/08/14 13:21:44;;;;;;;;;;;36.70;30.40;;;;;;5012009;28;19970;-70
2022/08/14 13:24:12;;;;;;;;;;;37.10;32.30;;;;;;5020303;28;19917;-70
2022/08/14 13:26:42;;;;;;;;;;;37.60;29.80;;;;;;5014672;28;19987;-70
2022/08/14 13:29:08;;;;;;;;;;;37.90;31.30;;;;;;5017180;28;19918;-70
2022/08/14 13:31:35;;;;;;;;;;;37.90;32.80;;;;;;5016250;28;19955;-70
2022/08/14 13:34:02;;;;;;;;;;;37.70;30.00;;;;;;5023153;28;19916;-70
2022/08/14 13:36:27;;;;;;;;;;;37.10;31.40;;;;;;5018780;28;19925;-70
2022/08/14 13:38:53;;;;;;;;;;;36.60;30.20;;;;;;5017131;28;20422;-70
2022/08/14 13:41:22;;;;;;;;;;;36.50;31.50;;;;;;5020607;28;20364;-70
2022/08/14 13:43:49;;;;;;;;;;;35.90;32.40;;;;;;5025727;28;19924;-70
2022/08/14 13:46:14;;;;;;;;;;;35.50;31.20;;;;;;5014941;28;20043;-70
2022/08/14 13:48:40;;;;;;;;;;;35.10;32.60;;;;;;5021832;28;20020;-70
2022/08/14 13:51:06;;;;;;;;;;;35.10;33.80;;;;;;5016502;28;20112;-69
2022/08/14 13:53:36;;;;;;;;;;;34.90;33.50;;;;;;5010350;28;20017;-70
2022/08/14 13:56:02;;;;;;;;;;;34.90;34.00;;;;;;5010546;28;19935;-70
2022/08/14 13:58:32;;;;;;;;;;;34.80;34.30;;;;;;5013595;28;20299;-69
2022/08/14 14:00:57;;;;;;;;;;;34.90;32.10;;;;;;5012938;28;19916;-70
2022/08/14 14:03:24;;;;;;;;;;;35.20;34.90;;;;;;5011209;28;19917;-69
2022/08/14 14:05:52;;;;;;;;;;;35.50;33.70;;;;;;5017627;28;19932;-70
2022/08/14 14:08:18;;;;;;;;;;;35.60;32.30;;;;;;5013126;28;20084;-69
2022/08/14 14:10:44;;;;;;;;;;;35.80;31.20;;;;;;5002401;28;20007;-69
2022/08/14 14:13:12;;;;;;;;;;;35.90;32.00;;;;;;5008820;28;20026;-70
2022/08/14 14:15:38;;;;;;;;;;;35.90;30.70;;;;;;5005216;28;20339;-70
2022/08/14 14:18:04;;;;;;;;;;;35.70;31.70;;;;;;5005667;28;20613;-70
2022/08/14 14:20:29;;;;;;;;;;;35.40;32.60;;;;;;5009707;28;19987;-70
2022/08/14 14:22:55;;;;;;;;;;;35.40;32.90;;;;;;5007445;28;20011;-70
2022/08/14 14:25:20;;;;;;;;;;;35.40;31.60;;;;;;4999775;28;19916;-69
2022/08/14 14:27:48;;;;;;;;;;;35.20;31.20;;;;;;5008656;28;19967;-69